Time;durP1;ratioP1;P1;durP2;ratioP2;P2;SDS_P1;SDS_P2;PMS_P1;PMS_P2;Temp;Humidity;BMP_temperature;BMP_pressure;BME280_temperature;BME280_humidity;BME280_pressure;Samples;Min_cycle;Max_cycle;Signal;HPM_P1;HPM_P2
2021/10/29 00:00:27;;;;;;;22.10;16.60;;;;;;;10.14;65.77;100506.05;3026078;78;21072;-71
2021/10/29 00:04:32;;;;;;;24.67;16.50;;;;;;;10.12;66.07;100500.01;3025906;78;21084;-72
2021/10/29 00:08:35;;;;;;;19.30;14.63;;;;;;;10.06;66.21;100495.17;3025609;78;20952;-71
2021/10/29 00:12:37;;;;;;;22.35;16.12;;;;;;;10.07;66.38;100494.67;3012607;78;21080;-71
2021/10/29 00:16:39;;;;;;;19.10;16.10;;;;;;;10.07;66.32;100492.88;3002659;78;21029;-72
2021/10/29 00:20:41;;;;;;;20.65;15.70;;;;;;;9.97;66.73;100489.21;3025702;78;21029;-71
2021/10/29 00:24:44;;;;;;;21.50;17.60;;;;;;;10.04;66.62;100478.97;3025888;78;20969;-71
2021/10/29 00:28:46;;;;;;;20.48;16.02;;;;;;;10.13;66.39;100469.80;3025617;78;20953;-71
2021/10/29 00:32:48;;;;;;;22.52;17.50;;;;;;;10.23;66.05;100474.42;3025916;78;21029;-71
2021/10/29 00:36:50;;;;;;;19.82;16.27;;;;;;;10.26;65.63;100476.84;3025270;78;21028;-71
2021/10/29 00:40:52;;;;;;;28.12;18.98;;;;;;;10.32;65.65;100475.02;3025622;78;21005;-72
2021/10/29 00:44:55;;;;;;;18.35;15.05;;;;;;;10.48;65.30;100471.20;3025859;78;21041;-71
2021/10/29 00:48:58;;;;;;;26.90;17.12;;;;;;;10.53;64.81;100474.34;2998602;78;21013;-71
2021/10/29 00:53:00;;;;;;;21.42;17.17;;;;;;;10.59;64.72;100479.66;3023139;78;20974;-71
2021/10/29 00:57:02;;;;;;;21.55;18.15;;;;;;;10.56;64.75;100480.73;3019969;77;21010;-71
2021/10/29 01:01:05;;;;;;;17.70;15.75;;;;;;;10.50;64.98;100474.58;2976782;80;20943;-71
2021/10/29 01:05:08;;;;;;;24.07;15.35;;;;;;;10.48;65.03;100475.19;2976515;79;21074;-71
2021/10/29 01:09:10;;;;;;;27.58;17.57;;;;;;;10.33;64.79;100471.39;2976230;79;21014;-71
2021/10/29 01:13:12;;;;;;;20.70;16.80;;;;;;;10.11;65.48;100470.41;2963560;77;21028;-72
2021/10/29 01:17:15;;;;;;;19.23;14.45;;;;;;;9.93;66.17;100467.36;2984141;80;21116;-71
2021/10/29 01:21:17;;;;;;;26.70;18.27;;;;;;;9.80;66.55;100472.73;2950376;80;21585;-72
2021/10/29 01:25:21;;;;;;;24.05;15.90;;;;;;;9.66;67.26;100459.17;2940003;79;21047;-71
2021/10/29 01:29:23;;;;;;;26.57;17.70;;;;;;;9.60;67.61;100457.45;2928132;80;21034;-71
2021/10/29 01:33:25;;;;;;;19.98;17.00;;;;;;;9.56;67.63;100453.71;2971898;79;21009;-71
2021/10/29 01:37:28;;;;;;;24.57;19.90;;;;;;;9.57;67.84;100458.55;2969568;80;21577;-71
2021/10/29 01:41:30;;;;;;;22.02;15.25;;;;;;;9.59;67.51;100451.31;3016967;79;20975;-71
2021/10/29 01:45:33;;;;;;;27.35;15.05;;;;;;;9.51;67.45;100441.27;2966184;80;21081;-71
2021/10/29 01:49:39;;;;;;;22.82;16.62;;;;;;;9.43;67.99;100436.99;3016950;79;21010;-71
2021/10/29 01:53:41;;;;;;;26.75;17.48;;;;;;;9.64;67.48;100430.56;2951083;80;21078;-72
2021/10/29 01:57:43;;;;;;;18.35;15.25;;;;;;;9.81;66.86;100422.63;2944004;80;21047;-71
2021/10/29 02:01:44;;;;;;;21.97;16.87;;;;;;;9.86;66.58;100418.30;2943943;80;20991;-71
2021/10/29 02:05:46;;;;;;;22.65;16.35;;;;;;;9.81;66.80;100413.32;3007268;79;21006;-71
2021/10/29 02:09:48;;;;;;;28.70;14.70;;;;;;;9.74;66.98;100409.45;2975136;80;21033;-71
2021/10/29 02:13:49;;;;;;;24.95;17.67;;;;;;;9.94;66.47;100414.58;2975258;80;20959;-71
2021/10/29 02:17:51;;;;;;;19.77;12.70;;;;;;;10.03;66.29;100409.50;3008097;79;21031;-71
2021/10/29 02:21:53;;;;;;;20.92;14.68;;;;;;;10.10;65.91;100417.35;2951526;80;21038;-71
2021/10/29 02:25:54;;;;;;;19.75;15.13;;;;;;;10.11;65.95;100413.26;2975386;80;21022;-71
2021/10/29 02:29:57;;;;;;;22.67;16.20;;;;;;;10.19;65.97;100396.71;3007888;79;20919;-71
2021/10/29 02:33:59;;;;;;;23.10;14.85;;;;;;;10.21;65.77;100397.44;2951740;80;21149;-71
2021/10/29 02:38:00;;;;;;;19.42;15.43;;;;;;;10.14;66.04;100389.59;2889756;80;21094;-71
2021/10/29 02:42:04;;;;;;;30.62;17.00;;;;;;;10.18;65.92;100391.50;3000050;79;21084;-72
2021/10/29 02:46:06;;;;;;;20.90;16.57;;;;;;;10.28;65.70;100381.34;2962107;79;21026;-71
2021/10/29 02:50:09;;;;;;;19.45;15.68;;;;;;;10.24;65.92;100379.08;2933553;80;20991;-71
2021/10/29 02:54:11;;;;;;;20.85;15.60;;;;;;;10.22;65.95;100377.00;3001022;78;21070;-71
2021/10/29 02:58:14;;;;;;;22.52;16.55;;;;;;;10.27;65.84;100377.50;3077795;77;21008;-71
2021/10/29 03:02:16;;;;;;;21.40;16.67;;;;;;;10.28;65.66;100372.55;3075268;77;20980;-72
2021/10/29 03:06:18;;;;;;;22.02;16.73;;;;;;;10.28;65.71;100370.71;3077574;76;20961;-73
2021/10/29 03:10:20;;;;;;;22.82;18.23;;;;;;;10.27;65.51;100360.22;3094572;76;21049;-71
2021/10/29 03:14:21;;;;;;;27.17;15.08;;;;;;;10.28;65.67;100364.56;2951579;79;21045;-72
2021/10/29 03:18:23;;;;;;;21.17;16.17;;;;;;;10.16;65.92;100349.11;3021802;79;20952;-70
2021/10/29 03:22:26;;;;;;;24.52;17.65;;;;;;;10.32;65.73;100338.09;3021459;79;21445;-73
2021/10/29 03:26:28;;;;;;;26.23;17.40;;;;;;;10.31;65.68;100339.06;3036194;77;20926;-71
2021/10/29 03:30:29;;;;;;;25.92;16.25;;;;;;;10.38;65.45;100349.55;3076563;77;21072;-76
2021/10/29 03:34:31;;;;;;;21.52;17.30;;;;;;;10.41;65.18;100338.70;3084947;76;20971;-76
2021/10/29 03:43:32;;;;;;;23.75;18.10;;;;;;;10.48;64.99;100343.55;3083506;76;20968;-74
2021/10/29 03:46:56;;;;;;;;;;;;;;;10.60;64.66;100340.38;3058311;77;21038;-75
2021/10/29 03:51:06;;;;;;;18.20;14.00;;;;;;;10.56;64.82;100343.75;3076592;77;20418;-75
2021/10/29 03:55:07;;;;;;;17.98;14.33;;;;;;;10.50;64.78;100339.77;3088463;77;20969;-75
2021/10/29 03:59:07;;;;;;;24.27;16.42;;;;;;;10.56;64.66;100348.60;3091488;77;21044;-75
2021/10/29 04:03:09;;;;;;;22.67;14.38;;;;;;;10.48;64.85;100336.39;3091974;77;20988;-81
2021/10/29 04:07:12;;;;;;;26.20;16.00;;;;;;;10.38;65.21;100344.73;3145049;75;20989;-81
2021/10/29 04:11:14;;;;;;;26.00;17.10;;;;;;;10.47;65.04;100347.17;3150864;75;21014;-82
2021/10/29 04:15:16;;;;;;;20.40;17.25;;;;;;;10.50;64.83;100343.77;3135992;75;20957;-81
2021/10/29 04:19:18;;;;;;;19.67;13.58;;;;;;;10.56;64.88;100340.62;3092611;77;20973;-79
2021/10/29 04:23:20;;;;;;;27.80;16.87;;;;;;;10.41;65.32;100343.19;3096624;75;21044;-81
2021/10/29 04:27:28;;;;;;;21.40;17.25;;;;;;;10.42;65.16;100348.39;3093365;75;21055;-81
2021/10/29 04:31:29;;;;;;;42.80;18.50;;;;;;;10.48;65.14;100347.53;3092130;75;20985;-81
2021/10/29 04:35:29;;;;;;;20.35;15.70;;;;;;;10.47;65.13;100347.17;3056449;75;21006;-79
2021/10/29 04:39:31;;;;;;;26.93;17.70;;;;;;;10.44;65.41;100345.59;3058821;75;20991;-73
2021/10/29 04:43:32;;;;;;;21.60;16.10;;;;;;;10.45;65.32;100349.94;3098846;75;21058;-75
2021/10/29 04:47:35;;;;;;;25.90;16.52;;;;;;;10.38;65.63;100348.72;3090755;75;21588;-71
2021/10/29 04:51:36;;;;;;;23.70;16.95;;;;;;;10.38;65.45;100356.20;3092897;77;21061;-73
2021/10/29 04:55:39;;;;;;;22.30;15.20;;;;;;;10.43;65.03;100346.09;3043030;77;21065;-73
2021/10/29 04:59:40;;;;;;;26.82;17.27;;;;;;;10.42;65.02;100340.89;3040331;78;20997;-73
2021/10/29 05:03:43;;;;;;;17.75;14.45;;;;;;;10.48;64.79;100341.72;3040914;78;20989;-73
2021/10/29 05:07:44;;;;;;;25.52;16.40;;;;;;;10.53;64.72;100338.22;3036585;76;21016;-72
2021/10/29 05:11:46;;;;;;;25.65;17.55;;;;;;;10.58;64.58;100339.16;3024702;76;21033;-72
2021/10/29 05:15:47;;;;;;;29.70;14.90;;;;;;;10.57;64.32;100333.47;3006400;76;21394;-76
2021/10/29 05:19:49;;;;;;;20.37;16.15;;;;;;;10.60;64.37;100342.53;3012660;76;20974;-73
2021/10/29 05:23:50;;;;;;;18.12;14.03;;;;;;;10.53;64.33;100334.23;2997757;78;21013;-73
2021/10/29 05:27:52;;;;;;;22.85;15.95;;;;;;;10.46;64.37;100332.19;3011285;76;21020;-74
2021/10/29 05:31:55;;;;;;;21.60;16.15;;;;;;;10.47;64.10;100327.23;2990927;78;21013;-73
2021/10/29 05:35:57;;;;;;;17.92;14.63;;;;;;;10.42;64.28;100323.13;3017188;76;21032;-73
2021/10/29 05:39:59;;;;;;;38.05;16.02;;;;;;;10.53;63.83;100328.91;3027837;76;21005;-75
2021/10/29 05:44:01;;;;;;;25.85;17.23;;;;;;;10.50;63.42;100329.63;3005145;77;21012;-74
2021/10/29 05:48:06;;;;;;;24.85;16.07;;;;;;;10.55;63.55;100331.42;2999337;77;20982;-73
2021/10/29 05:52:15;;;;;;;23.80;14.28;;;;;;;10.65;63.27;100351.00;3001882;76;20970;-73
2021/10/29 05:56:11;;;;;;;27.42;16.65;;;;;;;10.64;63.11;100351.98;3040413;77;20967;-73
2021/10/29 06:00:16;;;;;;;25.55;14.25;;;;;;;10.63;62.99;100348.95;3013595;78;20985;-72
2021/10/29 06:04:18;;;;;;;23.73;15.45;;;;;;;10.64;63.01;100344.47;3014264;79;20964;-75
2021/10/29 06:08:20;;;;;;;23.30;15.05;;;;;;;10.70;62.86;100342.63;3014128;78;21001;-74
2021/10/29 06:12:21;;;;;;;22.75;15.05;;;;;;;10.73;62.33;100346.39;3014270;77;20945;-73
2021/10/29 06:16:23;;;;;;;21.33;14.53;;;;;;;10.83;62.64;100347.31;3014474;79;20996;-73
2021/10/29 06:20:27;;;;;;;25.65;15.83;;;;;;;10.84;62.34;100352.16;2954261;80;21000;-73
2021/10/29 06:24:29;;;;;;;22.27;15.18;;;;;;;10.87;62.41;100353.23;2954264;80;21047;-73
2021/10/29 06:28:30;;;;;;;18.87;14.47;;;;;;;10.95;62.04;100360.09;2954093;80;21401;-73
2021/10/29 06:32:32;;;;;;;20.95;14.18;;;;;;;10.96;61.95;100370.27;2954556;80;21549;-73
2021/10/29 06:36:34;;;;;;;21.17;15.13;;;;;;;11.05;62.02;100378.81;2954595;79;20974;-73
2021/10/29 06:40:43;;;;;;;16.62;13.68;;;;;;;11.14;61.70;100382.53;2954567;80;21072;-73
2021/10/29 07:40:48;;;;;;;15.55;12.47;;;;;;;12.95;58.07;100361.29;3092099;76;20975;-76
2021/10/29 07:44:50;;;;;;;42.35;17.62;;;;;;;13.08;57.81;100361.87;3073570;76;20982;-75
2021/10/29 07:48:52;;;;;;;19.12;14.83;;;;;;;13.22;57.47;100361.92;3076292;76;20935;-76
2021/10/29 07:52:57;;;;;;;21.00;14.05;;;;;;;13.29;57.15;100361.70;3091628;75;21034;-74
2021/10/29 07:56:59;;;;;;;24.63;17.30;;;;;;;13.46;56.47;100368.68;2987294;78;21061;-77
2021/10/29 08:01:00;;;;;;;17.57;15.43;;;;;;;13.54;56.41;100370.13;2940132;77;21034;-76
2021/10/29 08:05:04;;;;;;;33.85;16.87;;;;;;;13.74;56.13;100378.11;2923398;81;20995;-76
2021/10/29 08:09:06;;;;;;;24.10;15.83;;;;;;;13.77;55.82;100379.19;2943289;81;20987;-74
2021/10/29 08:13:08;;;;;;;21.10;15.80;;;;;;;13.91;55.41;100386.37;2942745;81;21043;-75
2021/10/29 08:17:10;;;;;;;18.90;16.42;;;;;;;13.98;55.47;100387.50;2902981;81;20986;-75
2021/10/29 08:21:13;;;;;;;24.43;16.10;;;;;;;14.16;55.43;100382.73;2882389;81;21005;-78
2021/10/29 08:25:17;;;;;;;25.15;16.02;;;;;;;14.30;55.45;100380.88;2877369;81;21096;-75
2021/10/29 08:29:21;;;;;;;20.88;14.25;;;;;;;14.47;55.41;100379.75;2873535;82;21030;-77
2021/10/29 08:33:24;;;;;;;19.45;15.43;;;;;;;14.52;54.61;100377.46;2880384;82;21110;-73
2021/10/29 08:37:29;;;;;;;27.67;17.40;;;;;;;14.59;54.25;100377.23;2878337;82;21075;-75
2021/10/29 08:41:29;;;;;;;22.55;16.23;;;;;;;14.66;54.37;100375.63;2902976;81;21034;-75
2021/10/29 08:45:31;;;;;;;16.55;13.20;;;;;;;14.85;54.95;100368.49;2899314;81;21013;-72
2021/10/29 08:49:34;;;;;;;24.47;17.25;;;;;;;14.80;54.54;100352.87;2885528;81;21053;-72
2021/10/29 08:53:36;;;;;;;23.35;15.43;;;;;;;14.91;55.37;100355.00;2857866;81;21055;-73
2021/10/29 08:57:38;;;;;;;36.42;18.30;;;;;;;14.93;54.50;100341.78;2866211;82;21011;-72
2021/10/29 09:06:28;;;;;;;24.98;14.10;;;;;;;15.15;54.91;100335.63;2888182;81;21024;-72
2021/10/29 09:32:00;;;;;;;27.10;15.03;;;;;;;15.55;51.82;100322.68;2865541;81;21085;-72
2021/10/29 09:36:02;;;;;;;18.62;13.25;;;;;;;15.66;51.56;100322.91;2902589;81;21007;-72
2021/10/29 09:40:10;;;;;;;16.67;12.68;;;;;;;15.73;51.30;100334.70;2894755;81;20996;-72
2021/10/29 09:44:16;;;;;;;32.75;14.95;;;;;;;15.78;50.25;100324.34;2859886;81;21014;-72
2021/10/29 09:48:21;;;;;;;23.55;14.40;;;;;;;15.84;50.46;100330.39;2904843;81;21092;-73
2021/10/29 10:00:32;;;;;;;22.15;13.10;;;;;;;16.29;50.29;100342.36;2896535;81;21041;-72
2021/10/29 10:04:35;;;;;;;17.07;11.85;;;;;;;16.52;50.83;100333.73;2841791;83;21087;-72
2021/10/29 10:08:39;;;;;;;19.50;12.58;;;;;;;16.65;50.31;100321.17;2879614;81;21092;-72
2021/10/29 10:12:44;;;;;;;18.25;12.35;;;;;;;16.85;49.74;100329.75;2887356;81;21565;-73
2021/10/29 10:16:47;;;;;;;17.45;11.75;;;;;;;17.02;49.75;100332.48;2871485;81;20931;-72
2021/10/29 10:20:51;;;;;;;18.95;11.70;;;;;;;17.09;50.41;100330.80;2895689;81;21047;-72
2021/10/29 10:25:10;;;;;;;32.48;22.82;;;;;;;17.10;49.81;100333.85;2890631;81;21011;-72
2021/10/29 10:29:22;;;;;;;31.40;18.52;;;;;;;17.16;48.89;100326.94;2917875;81;20952;-72
2021/10/29 10:46:20;;;;;;;18.07;13.28;;;;;;;17.17;48.58;100308.46;2891601;81;21029;-73
2021/10/29 10:50:28;;;;;;;13.55;10.45;;;;;;;17.08;48.90;100302.25;2854112;83;21036;-73
2021/10/29 10:59:04;;;;;;;22.65;12.98;;;;;;;17.20;49.11;100293.38;2885411;81;21007;-73
2021/10/29 11:11:25;;;;;;;14.05;10.93;;;;;;;17.33;49.17;100277.54;2877654;81;21023;-73
2021/10/29 11:15:28;;;;;;;48.38;15.43;;;;;;;17.41;48.67;100274.00;2847656;83;21039;-73
2021/10/29 11:19:44;;;;;;;18.52;12.37;;;;;;;17.59;49.24;100265.74;2897670;81;21263;-73
2021/10/29 11:23:42;;;;;;;13.03;11.68;;;;;;;17.69;48.90;100265.55;2818868;83;21020;-74
2021/10/29 11:27:44;;;;;;;14.15;10.18;;;;;;;17.74;48.82;100260.47;2904474;81;20978;-72
2021/10/29 11:31:49;;;;;;;18.17;11.45;;;;;;;17.66;47.57;100253.76;2802222;83;21286;-74
2021/10/29 11:36:01;;;;;;;16.35;11.05;;;;;;;17.82;49.01;100254.23;2852726;83;21075;-73
2021/10/29 11:40:06;;;;;;;14.65;10.72;;;;;;;17.84;47.79;100253.55;2904275;81;21017;-72
2021/10/29 11:44:13;;;;;;;14.80;10.48;;;;;;;17.96;47.93;100236.50;2906985;81;21038;-73
2021/10/29 11:48:14;;;;;;;15.58;10.98;;;;;;;18.02;47.45;100232.31;2901929;81;21024;-74
2021/10/29 11:52:20;;;;;;;15.70;10.75;;;;;;;17.96;47.86;100220.36;2902964;81;21007;-73
2021/10/29 11:56:29;;;;;;;14.83;10.78;;;;;;;18.09;46.46;100213.08;2901382;81;21024;-73
2021/10/29 12:00:43;;;;;;;13.18;9.43;;;;;;;18.03;46.54;100215.97;2878693;81;21049;-72
2021/10/29 12:08:52;;;;;;;30.85;11.78;;;;;;;18.18;47.06;100213.87;2890093;81;21010;-72
2021/10/29 12:12:56;;;;;;;19.23;9.48;;;;;;;18.26;46.77;100208.42;2895359;81;21321;-73
2021/10/29 12:17:14;;;;;;;11.55;9.55;;;;;;;18.23;44.71;100203.40;2812061;83;21031;-72
2021/10/29 12:21:21;;;;;;;;;;;;;;;18.40;45.01;100210.35;2816011;84;21046;-74
2021/10/29 12:25:32;;;;;;;21.87;10.35;;;;;;;18.51;44.69;100193.46;2890435;81;20130;-74
2021/10/29 12:29:33;;;;;;;11.93;8.75;;;;;;;18.59;45.10;100201.47;2896151;81;21542;-73
2021/10/29 13:03:31;;;;;;;14.98;8.68;;;;;;;18.62;44.27;100155.83;2845252;82;21017;-72
2021/10/29 13:07:34;;;;;;;14.40;8.10;;;;;;;18.72;43.50;100154.23;2844254;83;21009;-74
2021/10/29 13:11:38;;;;;;;13.90;9.18;;;;;;;18.70;44.85;100151.20;2844938;83;21038;-72
2021/10/29 13:15:39;;;;;;;13.72;10.20;;;;;;;18.76;43.39;100142.05;2844800;81;21029;-72
2021/10/29 13:20:36;;;;;;;13.95;9.78;;;;;;;18.82;44.26;100142.16;2844817;83;20955;-73
2021/10/29 13:24:09;;;;;;;14.38;8.03;;;;;;;18.80;44.20;100139.31;2885787;81;21077;-73
2021/10/29 13:28:16;;;;;;;12.70;7.50;;;;;;;18.82;44.06;100134.58;2871945;81;21053;-76
2021/10/29 13:58:01;;;;;;;71.75;37.00;;;;;;;18.23;45.86;100105.99;2914915;81;20999;-76
2021/10/29 14:02:07;;;;;;;39.33;19.32;;;;;;;18.23;46.44;100103.30;2874471;81;21013;-74
2021/10/29 14:31:58;;;;;;;15.95;10.40;;;;;;;17.17;51.38;100083.56;2897342;81;21086;-75
2021/10/29 14:35:59;;;;;;;18.15;12.37;;;;;;;17.06;51.12;100076.72;2855663;80;21034;-74
2021/10/29 14:44:12;;;;;;;19.20;11.83;;;;;;;16.89;51.91;100071.03;2855762;79;21015;-75
2021/10/29 15:30:47;;;;;;;44.18;22.32;;;;;;;14.80;54.53;100055.66;2883357;82;21018;-77
2021/10/29 15:48:00;;;;;;;35.80;17.15;;;;;;;14.32;55.22;100041.77;2837081;84;21009;-72
2021/10/29 15:51:57;;;;;;;25.80;16.50;;;;;;;14.21;55.34;100044.72;2871808;81;21565;-72
2021/10/29 15:56:04;;;;;;;32.17;14.87;;;;;;;14.07;55.45;100041.59;2880305;82;21339;-73
2021/10/29 16:00:13;;;;;;;26.80;16.60;;;;;;;13.89;55.90;100048.31;2877992;81;21030;-71
2021/10/29 16:21:07;;;;;;;103.32;58.58;;;;;;;13.26;56.32;100041.94;2851524;82;21070;-71
2021/10/29 16:25:12;;;;;;;57.23;36.85;;;;;;;13.16;56.29;100037.98;2918202;80;20993;-70
2021/10/29 16:29:15;;;;;;;41.50;27.60;;;;;;;13.09;56.60;100043.10;2918634;80;21034;-70
2021/10/29 16:33:32;;;;;;;47.23;23.90;;;;;;;13.04;56.39;100041.86;2899407;80;21049;-72
2021/10/29 16:37:31;;;;;;;28.87;19.17;;;;;;;12.88;57.05;100037.16;2923653;79;20991;-71
2021/10/29 16:41:33;;;;;;;28.38;17.55;;;;;;;12.77;56.92;100036.34;2926749;80;21038;-71
2021/10/29 16:45:41;;;;;;;27.15;19.12;;;;;;;12.60;56.97;100050.44;2926514;79;21053;-71
2021/10/29 16:49:41;;;;;;;31.02;18.35;;;;;;;12.50;57.09;100049.14;2921199;80;21034;-70
2021/10/29 16:53:43;;;;;;;37.03;20.65;;;;;;;12.29;57.55;100051.49;2926444;80;21064;-71
2021/10/29 16:57:45;;;;;;;35.80;20.88;;;;;;;12.11;58.20;100046.88;2925352;80;20985;-70
2021/10/29 17:01:49;;;;;;;39.15;25.48;;;;;;;11.91;58.54;100042.52;2924115;81;21040;-72
2021/10/29 17:05:51;;;;;;;74.07;46.02;;;;;;;11.83;59.08;100037.88;2926190;80;21080;-70
2021/10/29 17:09:53;;;;;;;62.60;43.63;;;;;;;11.64;59.45;100036.06;2918458;81;21053;-71
2021/10/29 17:13:55;;;;;;;81.05;43.25;;;;;;;11.53;59.64;100042.36;2906006;81;21031;-72
2021/10/29 17:17:57;;;;;;;50.08;33.80;;;;;;;11.28;60.31;100041.39;2904299;81;21918;-71
2021/10/29 17:21:58;;;;;;;43.85;27.52;;;;;;;11.31;60.23;100046.09;2897484;81;20979;-73
2021/10/29 17:26:00;;;;;;;45.52;27.35;;;;;;;11.26;60.35;100054.00;2892913;81;21038;-70
2021/10/29 17:30:02;;;;;;;43.78;29.12;;;;;;;11.22;60.15;100067.72;2904995;80;21021;-71
2021/10/29 17:34:08;;;;;;;47.03;30.80;;;;;;;11.24;59.88;100070.61;2919526;80;21006;-72
2021/10/29 17:38:10;;;;;;;50.33;32.88;;;;;;;11.25;59.91;100067.44;2913194;80;20991;-71
2021/10/29 17:42:12;;;;;;;51.05;29.07;;;;;;;11.33;59.33;100072.95;2911168;79;21054;-73
2021/10/29 17:46:14;;;;;;;44.88;27.05;;;;;;;11.34;59.48;100063.13;2916355;80;21038;-72
2021/10/29 17:50:16;;;;;;;42.78;29.48;;;;;;;11.28;59.28;100068.02;2913426;80;21042;-72
2021/10/29 17:54:17;;;;;;;41.92;25.72;;;;;;;11.34;59.08;100072.44;2908961;80;21044;-72
2021/10/29 17:58:20;;;;;;;36.70;24.65;;;;;;;11.40;58.99;100067.92;2911280;81;20990;-73
2021/10/29 18:02:23;;;;;;;34.20;24.82;;;;;;;11.36;59.07;100070.48;2927634;80;20978;-73
2021/10/29 18:06:25;;;;;;;39.30;26.45;;;;;;;11.35;58.89;100070.13;2943059;80;21068;-73
2021/10/29 18:10:27;;;;;;;43.73;29.60;;;;;;;11.35;58.81;100085.63;2917345;80;21055;-73
2021/10/29 18:14:29;;;;;;;45.17;24.77;;;;;;;11.39;58.50;100087.04;2917439;80;21067;-74
2021/10/29 18:18:31;;;;;;;33.42;21.82;;;;;;;11.42;58.73;100088.09;2920094;80;21660;-73
2021/10/29 18:22:33;;;;;;;25.37;18.07;;;;;;;11.40;58.54;100090.56;2916838;80;21018;-75
2021/10/29 18:26:34;;;;;;;76.62;45.23;;;;;;;11.38;58.81;100095.16;2909217;80;21037;-75
2021/10/29 18:30:36;;;;;;;53.70;37.38;;;;;;;11.38;58.43;100097.81;2909476;80;21021;-73
2021/10/29 18:34:39;;;;;;;54.35;35.73;;;;;;;11.32;58.67;100097.03;2914165;80;21036;-75
2021/10/29 18:38:41;;;;;;;48.70;28.62;;;;;;;11.11;59.25;100089.96;2902996;81;21030;-73
2021/10/29 18:42:42;;;;;;;44.23;27.87;;;;;;;10.80;59.86;100096.12;2893981;80;21033;-75
2021/10/29 18:46:44;;;;;;;48.10;28.77;;;;;;;10.56;61.10;100097.26;2912980;80;21003;-72
2021/10/29 18:50:45;;;;;;;48.02;27.98;;;;;;;10.38;61.48;100100.94;2915869;80;20986;-74
2021/10/29 18:54:47;;;;;;;45.95;26.33;;;;;;;10.28;61.93;100101.37;2913918;80;21027;-72
2021/10/29 18:58:49;;;;;;;52.00;29.32;;;;;;;10.26;61.41;100107.30;2910952;80;21030;-75
2021/10/29 19:02:50;;;;;;;43.75;23.73;;;;;;;10.26;61.05;100108.13;2911079;80;20995;-75
2021/10/29 19:06:52;;;;;;;50.88;28.57;;;;;;;10.31;60.82;100106.42;2907200;80;21053;-74
2021/10/29 19:10:53;;;;;;;50.80;29.05;;;;;;;10.34;60.78;100114.64;2911086;80;20946;-74
2021/10/29 19:14:56;;;;;;;34.53;22.32;;;;;;;10.35;60.80;100107.84;2906181;81;21018;-75
2021/10/29 19:18:58;;;;;;;37.42;19.67;;;;;;;10.39;60.09;100113.26;2912273;80;20997;-76
2021/10/29 19:22:59;;;;;;;33.35;20.05;;;;;;;10.50;59.64;100103.58;2883403;80;20998;-72
2021/10/29 19:27:01;;;;;;;26.77;14.53;;;;;;;10.71;59.32;100113.72;2915917;80;20986;-71
2021/10/29 19:31:02;;;;;;;24.72;14.40;;;;;;;11.03;58.64;100097.28;2904288;79;21308;-68
2021/10/29 19:35:10;;;;;;;15.65;10.78;;;;;;;11.42;58.00;100088.09;2885795;81;21089;-70
2021/10/29 19:43:21;;;;;;;15.88;11.40;;;;;;;12.23;56.99;100111.56;2896262;81;21306;-69
2021/10/29 19:47:22;;;;;;;17.65;12.30;;;;;;;12.50;56.58;100121.17;2897710;81;21055;-69
2021/10/29 19:51:24;;;;;;;31.37;10.40;;;;;;;12.64;56.05;100113.20;2888568;81;21023;-70
2021/10/29 19:55:27;;;;;;;11.80;8.45;;;;;;;12.88;55.76;100095.89;2888080;81;30607;-70
2021/10/29 19:59:29;;;;;;;14.68;9.48;;;;;;;13.20;55.12;100081.27;2886419;80;21048;-70
2021/10/29 20:03:31;;;;;;;12.75;10.40;;;;;;;13.43;54.70;100075.06;2888711;81;21094;-70
2021/10/29 20:07:33;;;;;;;22.75;13.48;;;;;;;13.54;54.73;100084.20;2888491;81;21067;-72
2021/10/29 20:11:37;;;;;;;13.00;9.93;;;;;;;13.47;54.70;100076.45;2886143;81;21077;-73
2021/10/29 20:15:39;;;;;;;21.97;13.22;;;;;;;13.45;54.91;100083.77;2888651;79;20976;-71
2021/10/29 20:19:42;;;;;;;17.85;12.50;;;;;;;13.49;54.75;100095.02;2887362;81;20995;-70
2021/10/29 20:23:46;;;;;;;18.12;10.72;;;;;;;13.50;54.81;100100.19;2887342;81;21062;-71
2021/10/29 20:27:48;;;;;;;13.80;10.50;;;;;;;13.40;54.83;100104.73;2887147;81;21078;-71
2021/10/29 20:31:50;;;;;;;15.05;9.58;;;;;;;13.48;55.16;100110.19;2888251;81;21713;-72
2021/10/29 20:35:52;;;;;;;21.20;12.98;;;;;;;13.39;54.83;100119.08;2887845;81;21007;-71
2021/10/29 20:39:54;;;;;;;20.85;13.35;;;;;;;13.34;55.15;100119.52;2883616;81;21431;-71
2021/10/29 20:43:56;;;;;;;34.90;20.85;;;;;;;13.16;55.83;100119.95;2806800;84;21061;-72
2021/10/29 20:47:57;;;;;;;24.37;15.40;;;;;;;13.17;55.75;100117.14;2859659;82;21011;-71
2021/10/29 20:51:59;;;;;;;24.25;16.70;;;;;;;13.21;55.87;100107.84;2871253;82;21007;-72
2021/10/29 20:56:01;;;;;;;25.23;11.50;;;;;;;13.17;56.06;100094.92;2871304;82;21098;-70
2021/10/29 21:00:06;;;;;;;15.55;9.83;;;;;;;13.11;56.16;100086.52;2871632;82;21556;-71
2021/10/29 21:04:08;;;;;;;22.90;14.07;;;;;;;13.08;56.55;100091.30;2871898;82;21419;-70
2021/10/29 21:08:10;;;;;;;34.18;12.10;;;;;;;13.05;56.82;100075.06;2871972;82;21004;-71
2021/10/29 21:12:12;;;;;;;16.67;10.00;;;;;;;13.04;56.83;100060.03;2871807;83;21111;-72
2021/10/29 21:16:14;;;;;;;16.35;10.82;;;;;;;13.03;56.96;100054.86;2871541;83;21008;-72
2021/10/29 21:20:17;;;;;;;17.77;10.85;;;;;;;12.99;57.12;100035.14;2871570;83;20968;-71
2021/10/29 21:24:18;;;;;;;31.05;12.40;;;;;;;13.14;56.90;100026.61;2871596;83;21027;-71
2021/10/29 21:28:21;;;;;;;21.15;13.35;;;;;;;13.11;56.63;100020.23;2871624;83;21043;-70
2021/10/29 21:32:22;;;;;;;24.02;15.15;;;;;;;12.98;57.40;100019.25;2843801;81;21043;-72
2021/10/29 21:36:24;;;;;;;21.95;11.08;;;;;;;13.03;57.35;100043.67;2813891;84;21035;-71
2021/10/29 21:40:26;;;;;;;12.33;9.33;;;;;;;12.98;57.43;100060.64;2764476;86;21046;-71
2021/10/29 21:44:28;;;;;;;11.97;9.58;;;;;;;12.69;58.50;100081.10;2799811;84;21068;-71
2021/10/29 21:48:30;;;;;;;10.93;9.55;;;;;;;12.65;58.36;100085.05;2817764;84;21013;-72
2021/10/29 21:52:31;;;;;;;13.05;10.25;;;;;;;12.62;58.52;100090.69;2783992;85;21062;-72
2021/10/29 21:56:33;;;;;;;13.68;10.03;;;;;;;12.65;58.19;100075.71;2783415;85;21076;-72
2021/10/29 22:00:46;;;;;;;12.15;9.50;;;;;;;12.77;58.04;100071.04;2783485;85;21075;-72
2021/10/29 22:04:48;;;;;;;19.80;9.98;;;;;;;12.91;57.63;100067.05;2822474;84;21032;-72
2021/10/29 22:08:50;;;;;;;10.93;8.15;;;;;;;13.17;56.82;100078.90;2831050;84;21048;-70
2021/10/29 22:12:51;;;;;;;16.90;11.08;;;;;;;13.38;56.32;100074.66;2799669;85;21038;-71
2021/10/29 22:16:53;;;;;;;29.18;10.45;;;;;;;13.47;56.22;100068.94;2785341;85;21054;-71
2021/10/29 22:20:56;;;;;;;19.77;11.33;;;;;;;13.62;55.84;100076.77;2779784;85;21027;-72
2021/10/29 22:24:58;;;;;;;17.55;12.37;;;;;;;13.66;55.91;100096.02;2801834;85;21058;-72
2021/10/29 22:29:02;;;;;;;14.58;9.08;;;;;;;13.69;55.78;100080.53;2775048;85;21020;-71
2021/10/29 22:33:04;;;;;;;16.75;11.78;;;;;;;13.62;56.16;100080.77;2814129;84;21775;-72
2021/10/29 22:37:05;;;;;;;12.10;9.63;;;;;;;13.62;56.54;100074.60;2811781;84;21034;-72
2021/10/29 22:41:08;;;;;;;13.22;11.63;;;;;;;13.58;56.68;100074.56;2817116;84;21074;-72
2021/10/29 22:45:10;;;;;;;16.27;11.73;;;;;;;13.50;56.99;100096.69;2807744;84;21011;-70
2021/10/29 22:49:12;;;;;;;17.85;12.20;;;;;;;13.41;57.55;100113.91;2809929;84;21023;-71
2021/10/29 22:53:14;;;;;;;24.55;11.33;;;;;;;13.41;57.51;100119.26;2810492;84;21053;-71
2021/10/29 22:57:16;;;;;;;20.08;12.93;;;;;;;13.39;57.47;100127.92;2810496;84;21077;-71
2021/10/29 23:01:18;;;;;;;19.52;11.78;;;;;;;13.47;57.37;100137.90;2810381;84;21661;-70
2021/10/29 23:05:25;;;;;;;10.72;9.50;;;;;;;13.36;58.12;100151.41;2810089;84;21130;-72
2021/10/29 23:09:28;;;;;;;15.88;12.15;;;;;;;13.21;58.44;100141.22;2810112;83;21039;-74
2021/10/29 23:13:30;;;;;;;13.83;10.95;;;;;;;13.16;58.63;100111.42;2810744;84;21043;-71